Strona główna
METAR-TAF:

METAR-TAF

Lotnisko :

Port lotniczy Perpignan - Rivesaltes

Perpignan, Francja

Szerokość geograficzna: 42-44N, Długość geograficzna: 002-52E, wysokość: 43 m

Aktualna obserwacja pogody

Raport powstał 29 minut temu, godzina 20:00 UTC
Wiatr 8 kt od zachodnio-północny zachód
Temperatura 12°C
Wilgotność 76%
Ciśnienie 1023 hPa
Widzialność 10 km lub więcej
Brak chmur poniżej 1500 m i brak chmur cumulonimbus

METAR: LFMP 072000Z AUTO 29008KT CAVOK 12/08 Q1023 NOSIG

czas: 21:29 (20:29 UTC)

Prognoza

Raport powstał 6 godziny i 29 minut temu, godzina 14:00 UTC
Prognoza ważna od 07 godzina 15 UTC do 08 godzina 15 UTC
Wiatr 5 kt od zachodnio-północny zachód
Widzialność 10 km lub więcej
Brak chmur poniżej 1500 m i brak chmur cumulonimbus

TAF: LFMP 071400Z 0715/0815 30005KT CAVOK

Obserwacja i prognoza pogody dla ponad 4000 lotnisk (raport METAR i TAF).

Dostępne stacje oznaczono żółtymi i czerwonymi punktami na mapie.

Najedź kursorem aby zobaczyć nazwę stacji.

Kliknij aby zobaczyć obserwacje i prognozy pogody.

Aby zmienić mapę: kliknij na zielony przycisk z czarnym krzyżykiem, aby powiększyć; na zielony przycisk z myślnikiem, aby pomniejszyć; na zielone strzałki, aby przejść do map sąsiednich.


METAR-TAF: